Alexander Mills, North Carolina
Current Conditions -  °F | °C
As of 12:55 AM on Thursday 23 Oct 2014 (Local Time) from KFQD Reporting Station
Clear Clear  
Wind Chill: 48°   Ceiling: Unl
Heat Index: 48°   Visibility: 10mi
Dew Point: 37°   Wind: 3mph
Humidity: 64%   Direction: 20°NNE
Pressure: 30.12"   Gusts: NA
Location:  35.27°N, 81.8676°W
Report Text: KFQD 230455Z AUTO 02003KT 10SM CLR 09/03 A3012 RMK AO2 T00900025
Loading
Personal Weather Stations






























Interactive Weather Map
Tropical Storm Tracking
New forecast layout! Learn more

10-Day Weather Forecast

Advertisements
Track Severe Weather on mobile